sensor_id;sensor_type;location;lat;lon;timestamp;pressure;altitude;pressure_sealevel;temperature;humidity
71057;BME280;58380;48.312;9.246;2023-04-21T00:01:10;93150.28;;;2.84;100.00
71057;BME280;58380;48.312;9.246;2023-04-21T00:03:37;93109.88;;;2.63;100.00
71057;BME280;58380;48.312;9.246;2023-04-21T00:06:03;93149.13;;;2.79;100.00
71057;BME280;58380;48.312;9.246;2023-04-21T00:08:34;93113.94;;;2.58;100.00
71057;BME280;58380;48.312;9.246;2023-04-21T00:11:06;93146.38;;;2.74;100.00
71057;BME280;58380;48.312;9.246;2023-04-21T00:13:35;93150.22;;;2.72;100.00
71057;BME280;58380;48.312;9.246;2023-04-21T00:16:02;93119.13;;;2.58;100.00
71057;BME280;58380;48.312;9.246;2023-04-21T00:18:27;93107.88;;;2.46;100.00
71057;BME280;58380;48.312;9.246;2023-04-21T00:20:53;93113.22;;;2.51;100.00
71057;BME280;58380;48.312;9.246;2023-04-21T00:23:18;93116.97;;;2.55;100.00
71057;BME280;58380;48.312;9.246;2023-04-21T00:25:44;93116.53;;;2.58;100.00
71057;BME280;58380;48.312;9.246;2023-04-21T00:28:09;93113.47;;;2.62;100.00
71057;BME280;58380;48.312;9.246;2023-04-21T00:30:34;93123.69;;;2.63;100.00
71057;BME280;58380;48.312;9.246;2023-04-21T00:33:00;93119.00;;;2.53;100.00
71057;BME280;58380;48.312;9.246;2023-04-21T00:35:25;93116.44;;;2.35;100.00
71057;BME280;58380;48.312;9.246;2023-04-21T00:37:51;93071.00;;;2.01;100.00
71057;BME280;58380;48.312;9.246;2023-04-21T00:40:16;93080.31;;;2.08;100.00
71057;BME280;58380;48.312;9.246;2023-04-21T00:42:42;93111.09;;;2.30;100.00
71057;BME280;58380;48.312;9.246;2023-04-21T00:45:07;93098.50;;;2.27;100.00
71057;BME280;58380;48.312;9.246;2023-04-21T00:47:33;93107.34;;;2.26;100.00
71057;BME280;58380;48.312;9.246;2023-04-21T00:49:58;93093.47;;;2.13;100.00
71057;BME280;58380;48.312;9.246;2023-04-21T00:52:25;93098.81;;;2.19;100.00
71057;BME280;58380;48.312;9.246;2023-04-21T00:54:51;93117.75;;;2.26;100.00
71057;BME280;58380;48.312;9.246;2023-04-21T00:57:17;93097.44;;;2.16;100.00
71057;BME280;58380;48.312;9.246;2023-04-21T00:59:44;93090.56;;;2.22;100.00
71057;BME280;58380;48.312;9.246;2023-04-21T01:02:10;93092.03;;;2.18;100.00
71057;BME280;58380;48.312;9.246;2023-04-21T01:04:35;93077.38;;;2.05;100.00
71057;BME280;58380;48.312;9.246;2023-04-21T01:07:04;93110.59;;;2.21;100.00
71057;BME280;58380;48.312;9.246;2023-04-21T01:09:32;93101.28;;;2.13;100.00
71057;BME280;58380;48.312;9.246;2023-04-21T01:12:02;93107.00;;;2.22;100.00
71057;BME280;58380;48.312;9.246;2023-04-21T01:14:30;93076.19;;;2.01;100.00
71057;BME280;58380;48.312;9.246;2023-04-21T01:16:56;93107.91;;;2.28;100.00
71057;BME280;58380;48.312;9.246;2023-04-21T01:19:23;93083.94;;;2.07;100.00
71057;BME280;58380;48.312;9.246;2023-04-21T01:21:50;93092.31;;;2.09;100.00
71057;BME280;58380;48.312;9.246;2023-04-21T01:24:22;93057.69;;;1.90;100.00
71057;BME280;58380;48.312;9.246;2023-04-21T01:26:49;93061.03;;;1.98;100.00
71057;BME280;58380;48.312;9.246;2023-04-21T01:29:15;93101.28;;;2.13;100.00
71057;BME280;58380;48.312;9.246;2023-04-21T01:31:41;93083.94;;;2.07;100.00
71057;BME280;58380;48.312;9.246;2023-04-21T01:34:07;93042.81;;;1.79;100.00
71057;BME280;58380;48.312;9.246;2023-04-21T01:36:35;93104.38;;;2.22;100.00
71057;BME280;58380;48.312;9.246;2023-04-21T01:39:01;93123.16;;;2.24;100.00
71057;BME280;58380;48.312;9.246;2023-04-21T01:41:27;93087.97;;;2.03;100.00
71057;BME280;58380;48.312;9.246;2023-04-21T01:43:52;93091.69;;;1.96;100.00
71057;BME280;58380;48.312;9.246;2023-04-21T01:46:19;93061.47;;;1.58;100.00
71057;BME280;58380;48.312;9.246;2023-04-21T01:48:45;93049.31;;;1.51;100.00
71057;BME280;58380;48.312;9.246;2023-04-21T01:51:10;93094.50;;;1.76;100.00
71057;BME280;58380;48.312;9.246;2023-04-21T01:53:35;93086.47;;;1.77;100.00
71057;BME280;58380;48.312;9.246;2023-04-21T01:56:01;93066.59;;;1.64;100.00
71057;BME280;58380;48.312;9.246;2023-04-21T01:58:26;93089.38;;;1.87;100.00
71057;BME280;58380;48.312;9.246;2023-04-21T02:00:52;93090.38;;;1.86;100.00
71057;BME280;58380;48.312;9.246;2023-04-21T02:03:17;93076.59;;;1.67;100.00
71057;BME280;58380;48.312;9.246;2023-04-21T02:05:42;93064.28;;;1.56;100.00
71057;BME280;58380;48.312;9.246;2023-04-21T02:08:08;93071.16;;;1.50;100.00
71057;BME280;58380;48.312;9.246;2023-04-21T02:10:33;93085.72;;;1.51;100.00
71057;BME280;58380;48.312;9.246;2023-04-21T02:12:59;93088.75;;;1.48;100.00
71057;BME280;58380;48.312;9.246;2023-04-21T02:15:25;93109.72;;;1.54;100.00
71057;BME280;58380;48.312;9.246;2023-04-21T02:17:50;93072.25;;;1.18;100.00
71057;BME280;58380;48.312;9.246;2023-04-21T02:20:16;93081.94;;;1.29;100.00
71057;BME280;58380;48.312;9.246;2023-04-21T02:22:41;93093.28;;;1.35;100.00
71057;BME280;58380;48.312;9.246;2023-04-21T02:25:07;93097.84;;;1.39;100.00
71057;BME280;58380;48.312;9.246;2023-04-21T02:27:32;93092.78;;;1.44;100.00
71057;BME280;58380;48.312;9.246;2023-04-21T02:29:58;93070.75;;;1.28;100.00
71057;BME280;58380;48.312;9.246;2023-04-21T02:32:23;93063.88;;;1.16;100.00
71057;BME280;58380;48.312;9.246;2023-04-21T02:34:49;93072.56;;;1.28;100.00
71057;BME280;58380;48.312;9.246;2023-04-21T02:37:14;93041.75;;;1.06;100.00
71057;BME280;58380;48.312;9.246;2023-04-21T02:39:39;93064.75;;;1.28;100.00
71057;BME280;58380;48.312;9.246;2023-04-21T02:42:05;93070.22;;;1.20;100.00
71057;BME280;58380;48.312;9.246;2023-04-21T02:44:30;93085.41;;;1.23;100.00
71057;BME280;58380;48.312;9.246;2023-04-21T02:46:56;93085.75;;;1.26;100.00
71057;BME280;58380;48.312;9.246;2023-04-21T02:49:21;93089.88;;;1.34;100.00
71057;BME280;58380;48.312;9.246;2023-04-21T02:51:46;93069.03;;;1.22;100.00
71057;BME280;58380;48.312;9.246;2023-04-21T02:54:12;93019.28;;;0.94;100.00
71057;BME280;58380;48.312;9.246;2023-04-21T02:56:37;93050.09;;;1.15;100.00
71057;BME280;58380;48.312;9.246;2023-04-21T02:59:02;93043.75;;;1.04;100.00
71057;BME280;58380;48.312;9.246;2023-04-21T03:01:28;93086.16;;;1.30;100.00
71057;BME280;58380;48.312;9.246;2023-04-21T03:03:53;93072.59;;;1.21;100.00
71057;BME280;58380;48.312;9.246;2023-04-21T03:06:19;93044.25;;;0.95;100.00
71057;BME280;58380;48.312;9.246;2023-04-21T03:08:44;93034.91;;;0.87;100.00
71057;BME280;58380;48.312;9.246;2023-04-21T03:11:09;93089.97;;;1.27;100.00
71057;BME280;58380;48.312;9.246;2023-04-21T03:13:35;93088.75;;;1.30;100.00
71057;BME280;58380;48.312;9.246;2023-04-21T03:16:00;93099.19;;;1.23;100.00
71057;BME280;58380;48.312;9.246;2023-04-21T03:18:26;93082.81;;;1.23;100.00
71057;BME280;58380;48.312;9.246;2023-04-21T03:20:52;93063.47;;;1.12;100.00
71057;BME280;58380;48.312;9.246;2023-04-21T03:23:23;93068.91;;;1.11;100.00
71057;BME280;58380;48.312;9.246;2023-04-21T03:25:48;93070.28;;;1.13;100.00
71057;BME280;58380;48.312;9.246;2023-04-21T03:28:14;93070.44;;;1.18;100.00
71057;BME280;58380;48.312;9.246;2023-04-21T03:30:40;93091.06;;;1.38;100.00
71057;BME280;58380;48.312;9.246;2023-04-21T03:33:06;93062.66;;;1.18;100.00
71057;BME280;58380;48.312;9.246;2023-04-21T03:35:31;93084.19;;;1.25;100.00
71057;BME280;58380;48.312;9.246;2023-04-21T03:37:58;93084.22;;;1.19;100.00
71057;BME280;58380;48.312;9.246;2023-04-21T03:40:23;93083.44;;;1.18;100.00
71057;BME280;58380;48.312;9.246;2023-04-21T03:42:49;93043.53;;;0.88;100.00
71057;BME280;58380;48.312;9.246;2023-04-21T03:45:14;93076.13;;;1.08;100.00
71057;BME280;58380;48.312;9.246;2023-04-21T03:47:40;93072.59;;;1.03;100.00
71057;BME280;58380;48.312;9.246;2023-04-21T03:50:06;93071.72;;;1.09;100.00
71057;BME280;58380;48.312;9.246;2023-04-21T03:52:31;93097.03;;;1.20;100.00
71057;BME280;58380;48.312;9.246;2023-04-21T03:54:57;93096.41;;;1.25;100.00
71057;BME280;58380;48.312;9.246;2023-04-21T03:57:22;93072.72;;;1.08;100.00
71057;BME280;58380;48.312;9.246;2023-04-21T03:59:48;93037.47;;;0.94;100.00
71057;BME280;58380;48.312;9.246;2023-04-21T04:02:13;93058.28;;;1.12;100.00
71057;BME280;58380;48.312;9.246;2023-04-21T04:04:38;93022.16;;;0.85;100.00
71057;BME280;58380;48.312;9.246;2023-04-21T04:07:04;93074.31;;;1.09;100.00
71057;BME280;58380;48.312;9.246;2023-04-21T04:09:31;93050.88;;;0.91;100.00
71057;BME280;58380;48.312;9.246;2023-04-21T04:11:57;93086.94;;;1.05;100.00
71057;BME280;58380;48.312;9.246;2023-04-21T04:14:22;93101.31;;;1.08;100.00
71057;BME280;58380;48.312;9.246;2023-04-21T04:16:47;93085.56;;;1.03;100.00
71057;BME280;58380;48.312;9.246;2023-04-21T04:19:13;93085.56;;;1.03;100.00
71057;BME280;58380;48.312;9.246;2023-04-21T04:21:38;93042.22;;;0.97;100.00
71057;BME280;58380;48.312;9.246;2023-04-21T04:24:04;93061.94;;;1.04;100.00
71057;BME280;58380;48.312;9.246;2023-04-21T04:26:29;93060.41;;;0.97;100.00
71057;BME280;58380;48.312;9.246;2023-04-21T04:28:58;93056.59;;;0.99;100.00
71057;BME280;58380;48.312;9.246;2023-04-21T04:31:26;93053.00;;;1.00;100.00
71057;BME280;58380;48.312;9.246;2023-04-21T04:33:53;93062.19;;;1.03;100.00
71057;BME280;58380;48.312;9.246;2023-04-21T04:36:18;93055.22;;;0.72;100.00
71057;BME280;58380;48.312;9.246;2023-04-21T04:38:44;93101.31;;;0.83;100.00
71057;BME280;58380;48.312;9.246;2023-04-21T04:41:10;93095.13;;;0.77;100.00
71057;BME280;58380;48.312;9.246;2023-04-21T04:43:37;93068.78;;;0.74;100.00
71057;BME280;58380;48.312;9.246;2023-04-21T04:46:04;93091.34;;;1.05;100.00
71057;BME280;58380;48.312;9.246;2023-04-21T04:48:29;93097.72;;;1.09;100.00
71057;BME280;58380;48.312;9.246;2023-04-21T04:50:55;93077.78;;;1.03;100.00
71057;BME280;58380;48.312;9.246;2023-04-21T04:53:21;93055.34;;;0.83;100.00
71057;BME280;58380;48.312;9.246;2023-04-21T04:55:46;93067.47;;;0.90;100.00
71057;BME280;58380;48.312;9.246;2023-04-21T04:58:12;93088.00;;;0.98;100.00
71057;BME280;58380;48.312;9.246;2023-04-21T05:03:12;93089.75;;;0.79;100.00
71057;BME280;58380;48.312;9.246;2023-04-21T05:05:38;93056.66;;;0.68;100.00
71057;BME280;58380;48.312;9.246;2023-04-21T05:08:03;93117.13;;;1.06;100.00
71057;BME280;58380;48.312;9.246;2023-04-21T05:10:29;93091.25;;;0.93;100.00
71057;BME280;58380;48.312;9.246;2023-04-21T05:12:55;93097.34;;;1.05;100.00
71057;BME280;58380;48.312;9.246;2023-04-21T05:15:20;93103.00;;;1.21;100.00
71057;BME280;58380;48.312;9.246;2023-04-21T05:17:47;93094.88;;;1.36;100.00
71057;BME280;58380;48.312;9.246;2023-04-21T05:20:13;93108.03;;;1.41;100.00
71057;BME280;58380;48.312;9.246;2023-04-21T05:22:40;93093.63;;;1.45;100.00
71057;BME280;58380;48.312;9.246;2023-04-21T05:25:06;93057.59;;;1.23;100.00
71057;BME280;58380;48.312;9.246;2023-04-21T05:27:32;93059.91;;;1.32;100.00
71057;BME280;58380;48.312;9.246;2023-04-21T05:29:58;93065.56;;;1.47;100.00
71057;BME280;58380;48.312;9.246;2023-04-21T05:32:25;93062.75;;;1.48;100.00
71057;BME280;58380;48.312;9.246;2023-04-21T05:34:50;93079.22;;;1.79;100.00
71057;BME280;58380;48.312;9.246;2023-04-21T05:37:16;93051.41;;;1.80;100.00
71057;BME280;58380;48.312;9.246;2023-04-21T05:39:41;93070.91;;;1.89;100.00
71057;BME280;58380;48.312;9.246;2023-04-21T05:42:10;93091.88;;;1.94;100.00
71057;BME280;58380;48.312;9.246;2023-04-21T05:44:36;93059.75;;;1.70;100.00
71057;BME280;58380;48.312;9.246;2023-04-21T05:47:03;93112.47;;;2.14;100.00
71057;BME280;58380;48.312;9.246;2023-04-21T05:49:28;93096.81;;;2.02;100.00
71057;BME280;58380;48.312;9.246;2023-04-21T05:51:54;93091.66;;;2.32;100.00
71057;BME280;58380;48.312;9.246;2023-04-21T05:54:19;93091.66;;;2.44;100.00
71057;BME280;58380;48.312;9.246;2023-04-21T05:56:45;93077.06;;;2.43;100.00
71057;BME280;58380;48.312;9.246;2023-04-21T05:59:12;93079.22;;;2.46;100.00
71057;BME280;58380;48.312;9.246;2023-04-21T06:01:37;93083.66;;;2.46;100.00
71057;BME280;58380;48.312;9.246;2023-04-21T06:04:03;93088.31;;;2.55;100.00
71057;BME280;58380;48.312;9.246;2023-04-21T06:06:28;93094.19;;;2.51;100.00
71057;BME280;58380;48.312;9.246;2023-04-21T06:08:54;93088.28;;;2.44;100.00
71057;BME280;58380;48.312;9.246;2023-04-21T06:11:19;93086.84;;;2.29;100.00
71057;BME280;58380;48.312;9.246;2023-04-21T06:13:45;93097.97;;;2.36;100.00
71057;BME280;58380;48.312;9.246;2023-04-21T06:16:10;93104.56;;;2.39;100.00
71057;BME280;58380;48.312;9.246;2023-04-21T06:18:36;93097.13;;;2.43;100.00
71057;BME280;58380;48.312;9.246;2023-04-21T06:21:01;93097.69;;;2.45;100.00
71057;BME280;58380;48.312;9.246;2023-04-21T06:23:27;93079.88;;;2.42;100.00
71057;BME280;58380;48.312;9.246;2023-04-21T06:26:02;93111.41;;;2.52;100.00
71057;BME280;58380;48.312;9.246;2023-04-21T06:28:30;93078.25;;;2.29;100.00
71057;BME280;58380;48.312;9.246;2023-04-21T06:30:57;93081.63;;;2.29;100.00
71057;BME280;58380;48.312;9.246;2023-04-21T06:33:23;93106.56;;;2.55;100.00
71057;BME280;58380;48.312;9.246;2023-04-21T06:35:48;93072.97;;;2.35;100.00
71057;BME280;58380;48.312;9.246;2023-04-21T06:38:16;93030.41;;;2.11;100.00
71057;BME280;58380;48.312;9.246;2023-04-21T06:40:42;93084.34;;;2.53;100.00
71057;BME280;58380;48.312;9.246;2023-04-21T06:43:08;93067.13;;;2.52;100.00
71057;BME280;58380;48.312;9.246;2023-04-21T06:45:33;93094.72;;;2.71;100.00
71057;BME280;58380;48.312;9.246;2023-04-21T06:47:58;93078.28;;;2.71;100.00
71057;BME280;58380;48.312;9.246;2023-04-21T06:50:24;93081.69;;;2.71;100.00
71057;BME280;58380;48.312;9.246;2023-04-21T06:52:49;93084.66;;;2.75;100.00
71057;BME280;58380;48.312;9.246;2023-04-21T06:55:15;93080.88;;;2.71;100.00
71057;BME280;58380;48.312;9.246;2023-04-21T06:57:40;93070.91;;;2.68;100.00
71057;BME280;58380;48.312;9.246;2023-04-21T07:00:06;93094.38;;;2.79;100.00
71057;BME280;58380;48.312;9.246;2023-04-21T07:02:32;93095.09;;;2.87;100.00
71057;BME280;58380;48.312;9.246;2023-04-21T07:04:58;93079.81;;;2.90;100.00
71057;BME280;58380;48.312;9.246;2023-04-21T07:07:23;93070.88;;;2.98;100.00
71057;BME280;58380;48.312;9.246;2023-04-21T07:09:48;93095.63;;;3.31;100.00
71057;BME280;58380;48.312;9.246;2023-04-21T07:12:14;93103.22;;;3.44;100.00
71057;BME280;58380;48.312;9.246;2023-04-21T07:14:39;93067.72;;;3.31;100.00
71057;BME280;58380;48.312;9.246;2023-04-21T07:17:05;93070.22;;;3.38;100.00
71057;BME280;58380;48.312;9.246;2023-04-21T07:19:30;93097.34;;;3.72;100.00
71057;BME280;58380;48.312;9.246;2023-04-21T07:21:56;93095.84;;;3.76;100.00
71057;BME280;58380;48.312;9.246;2023-04-21T07:24:22;93062.84;;;3.70;100.00
71057;BME280;58380;48.312;9.246;2023-04-21T07:26:47;93089.25;;;3.85;100.00
71057;BME280;58380;48.312;9.246;2023-04-21T07:29:13;93073.00;;;3.83;100.00
71057;BME280;58380;48.312;9.246;2023-04-21T07:31:38;93077.22;;;3.84;100.00
71057;BME280;58380;48.312;9.246;2023-04-21T07:34:04;93066.66;;;3.79;100.00
71057;BME280;58380;48.312;9.246;2023-04-21T07:36:29;93073.78;;;3.96;100.00
71057;BME280;58380;48.312;9.246;2023-04-21T07:38:55;93052.69;;;3.85;100.00
71057;BME280;58380;48.312;9.246;2023-04-21T07:41:21;93087.72;;;4.13;100.00
71057;BME280;58380;48.312;9.246;2023-04-21T07:43:46;93065.59;;;4.04;100.00
71057;BME280;58380;48.312;9.246;2023-04-21T07:46:12;93100.41;;;4.21;100.00
71057;BME280;58380;48.312;9.246;2023-04-21T07:48:38;93060.47;;;4.09;100.00
71057;BME280;58380;48.312;9.246;2023-04-21T07:51:04;92998.53;;;3.93;100.00
71057;BME280;58380;48.312;9.246;2023-04-21T07:53:30;93031.88;;;4.31;100.00
71057;BME280;58380;48.312;9.246;2023-04-21T07:55:55;61853.94;;;-146.86;100.00
71057;BME280;58380;48.312;9.246;2023-04-21T07:58:21;93096.06;;;5.30;100.00
71057;BME280;58380;48.312;9.246;2023-04-21T08:00:47;93084.22;;;5.61;100.00
71057;BME280;58380;48.312;9.246;2023-04-21T08:03:12;93067.41;;;5.57;100.00
71057;BME280;58380;48.312;9.246;2023-04-21T08:05:38;93071.44;;;5.65;100.00
71057;BME280;58380;48.312;9.246;2023-04-21T08:08:04;93083.53;;;5.88;100.00
71057;BME280;58380;48.312;9.246;2023-04-21T08:10:29;93084.75;;;5.97;100.00
71057;BME280;58380;48.312;9.246;2023-04-21T08:12:55;93092.75;;;6.07;100.00
71057;BME280;58380;48.312;9.246;2023-04-21T08:15:20;93075.06;;;5.97;100.00
71057;BME280;58380;48.312;9.246;2023-04-21T08:17:46;93104.00;;;6.08;100.00
71057;BME280;58380;48.312;9.246;2023-04-21T08:20:11;93089.41;;;6.12;100.00
71057;BME280;58380;48.312;9.246;2023-04-21T08:22:37;93067.25;;;6.02;100.00
71057;BME280;58380;48.312;9.246;2023-04-21T08:25:04;93089.34;;;6.07;100.00
71057;BME280;58380;48.312;9.246;2023-04-21T08:27:30;93083.66;;;6.15;100.00
71057;BME280;58380;48.312;9.246;2023-04-21T08:29:55;93055.78;;;6.09;100.00
71057;BME280;58380;48.312;9.246;2023-04-21T08:32:21;93058.72;;;6.34;100.00
71057;BME280;58380;48.312;9.246;2023-04-21T08:34:52;93078.19;;;6.65;100.00
71057;BME280;58380;48.312;9.246;2023-04-21T08:37:19;93062.78;;;6.69;100.00
71057;BME280;58380;48.312;9.246;2023-04-21T08:39:46;93057.06;;;6.77;100.00
71057;BME280;58380;48.312;9.246;2023-04-21T08:42:15;93074.00;;;6.91;100.00
71057;BME280;58380;48.312;9.246;2023-04-21T08:44:42;93055.75;;;6.75;100.00
71057;BME280;58380;48.312;9.246;2023-04-21T08:47:12;93024.59;;;6.56;100.00
71057;BME280;58380;48.312;9.246;2023-04-21T08:49:40;93052.84;;;6.76;100.00
71057;BME280;58380;48.312;9.246;2023-04-21T08:52:07;93089.09;;;7.06;100.00
71057;BME280;58380;48.312;9.246;2023-04-21T08:54:33;93044.06;;;6.87;100.00
71057;BME280;58380;48.312;9.246;2023-04-21T08:57:02;93075.13;;;7.33;100.00
71057;BME280;58380;48.312;9.246;2023-04-21T08:59:29;93080.78;;;7.52;100.00
71057;BME280;58380;48.312;9.246;2023-04-21T09:02:20;93081.50;;;7.80;100.00
71057;BME280;58380;48.312;9.246;2023-04-21T09:04:50;93076.13;;;8.07;100.00
71057;BME280;58380;48.312;9.246;2023-04-21T09:09:57;93085.03;;;8.00;97.93
71057;BME280;58380;48.312;9.246;2023-04-21T09:12:24;93093.50;;;8.13;99.38
71057;BME280;58380;48.312;9.246;2023-04-21T09:14:50;93095.66;;;8.21;99.68
71057;BME280;58380;48.312;9.246;2023-04-21T09:17:16;93086.16;;;8.15;97.34
71057;BME280;58380;48.312;9.246;2023-04-21T09:19:43;93065.38;;;8.13;97.84
71057;BME280;58380;48.312;9.246;2023-04-21T09:22:08;93086.06;;;8.42;96.60
71057;BME280;58380;48.312;9.246;2023-04-21T09:24:51;93067.13;;;8.45;97.96
71057;BME280;58380;48.312;9.246;2023-04-21T09:27:22;93061.06;;;8.45;98.83
71057;BME280;58380;48.312;9.246;2023-04-21T09:29:47;93075.34;;;8.69;94.81
71057;BME280;58380;48.312;9.246;2023-04-21T09:32:19;93074.00;;;8.56;94.94
71057;BME280;58380;48.312;9.246;2023-04-21T09:34:44;93079.63;;;8.23;94.94
71057;BME280;58380;48.312;9.246;2023-04-21T09:37:11;93085.16;;;8.26;96.21
71057;BME280;58380;48.312;9.246;2023-04-21T09:39:38;93074.38;;;8.23;97.49
71057;BME280;58380;48.312;9.246;2023-04-21T09:42:09;93090.94;;;8.23;94.96
71057;BME280;58380;48.312;9.246;2023-04-21T09:44:34;93086.75;;;8.27;96.67
71057;BME280;58380;48.312;9.246;2023-04-21T09:47:02;93086.34;;;8.51;98.89
71057;BME280;58380;48.312;9.246;2023-04-21T09:49:30;93076.13;;;8.59;96.82
71057;BME280;58380;48.312;9.246;2023-04-21T09:52:00;93096.47;;;8.90;95.20
71057;BME280;58380;48.312;9.246;2023-04-21T09:54:31;93055.91;;;8.80;94.28
71057;BME280;58380;48.312;9.246;2023-04-21T09:56:59;93091.19;;;8.95;92.99
71057;BME280;58380;48.312;9.246;2023-04-21T09:59:33;93082.75;;;8.82;95.88
71057;BME280;58380;48.312;9.246;2023-04-21T10:02:03;93093.06;;;9.04;94.90
71057;BME280;58380;48.312;9.246;2023-04-21T10:04:30;93088.34;;;9.22;96.84
71057;BME280;58380;48.312;9.246;2023-04-21T10:07:01;93075.19;;;9.37;93.13
71057;BME280;58380;48.312;9.246;2023-04-21T10:09:36;93081.75;;;9.65;95.81
71057;BME280;58380;48.312;9.246;2023-04-21T10:12:06;93090.44;;;9.86;92.36
71057;BME280;58380;48.312;9.246;2023-04-21T10:14:33;93051.97;;;9.70;90.11
71057;BME280;58380;48.312;9.246;2023-04-21T10:17:07;93071.47;;;9.84;88.73
71057;BME280;58380;48.312;9.246;2023-04-21T10:19:35;93069.91;;;9.68;87.54
71057;BME280;58380;48.312;9.246;2023-04-21T10:22:09;93073.31;;;9.84;93.68
71057;BME280;58380;48.312;9.246;2023-04-21T10:24:38;93070.94;;;9.77;91.58
71057;BME280;58380;48.312;9.246;2023-04-21T10:27:11;93061.22;;;9.52;92.53
71057;BME280;58380;48.312;9.246;2023-04-21T10:29:57;93066.72;;;9.61;90.82
71057;BME280;58380;48.312;9.246;2023-04-21T10:32:40;93032.78;;;9.54;89.50
71057;BME280;58380;48.312;9.246;2023-04-21T10:35:13;93063.03;;;9.77;91.52
71057;BME280;58380;48.312;9.246;2023-04-21T10:37:41;93069.88;;;9.78;89.12
71057;BME280;58380;48.312;9.246;2023-04-21T10:42:54;93065.88;;;10.06;92.03
71057;BME280;58380;48.312;9.246;2023-04-21T10:45:24;93065.56;;;10.23;87.98
71057;BME280;58380;48.312;9.246;2023-04-21T10:47:52;93061.63;;;10.31;91.14
71057;BME280;58380;48.312;9.246;2023-04-21T10:50:28;93052.06;;;10.40;91.31
71057;BME280;58380;48.312;9.246;2023-04-21T10:53:06;93024.94;;;10.29;87.21
71057;BME280;58380;48.312;9.246;2023-04-21T10:55:34;93039.44;;;10.37;88.42
71057;BME280;58380;48.312;9.246;2023-04-21T10:58:02;93033.66;;;10.30;91.34
71057;BME280;58380;48.312;9.246;2023-04-21T11:00:29;93039.66;;;10.51;86.42
71057;BME280;58380;48.312;9.246;2023-04-21T11:02:57;93046.88;;;10.79;86.21
71057;BME280;58380;48.312;9.246;2023-04-21T11:05:29;92992.03;;;10.71;88.25
71057;BME280;58380;48.312;9.246;2023-04-21T11:08:07;93047.13;;;11.22;86.21
71057;BME280;58380;48.312;9.246;2023-04-21T11:10:50;92991.81;;;11.02;81.86
71057;BME280;58380;48.312;9.246;2023-04-21T11:13:25;93040.19;;;11.32;79.52
71057;BME280;58380;48.312;9.246;2023-04-21T11:16:04;93042.75;;;11.02;80.97
71057;BME280;58380;48.312;9.246;2023-04-21T11:18:38;93025.44;;;10.91;80.99
71057;BME280;58380;48.312;9.246;2023-04-21T11:21:07;93024.88;;;10.94;82.22
71057;BME280;58380;48.312;9.246;2023-04-21T11:23:34;93035.00;;;11.21;87.39
71057;BME280;58380;48.312;9.246;2023-04-21T11:26:00;93007.28;;;11.19;80.79
71057;BME280;58380;48.312;9.246;2023-04-21T11:28:25;93016.00;;;11.49;80.86
71057;BME280;58380;48.312;9.246;2023-04-21T11:30:51;93014.97;;;11.44;76.03
71057;BME280;58380;48.312;9.246;2023-04-21T11:33:16;92996.56;;;11.34;77.08
71057;BME280;58380;48.312;9.246;2023-04-21T11:35:42;93024.84;;;11.63;75.55
71057;BME280;58380;48.312;9.246;2023-04-21T11:38:07;92972.91;;;11.53;75.03
71057;BME280;58380;48.312;9.246;2023-04-21T11:40:46;93005.84;;;11.90;73.62
71057;BME280;58380;48.312;9.246;2023-04-21T11:43:12;93013.03;;;11.84;74.06
71057;BME280;58380;48.312;9.246;2023-04-21T11:45:39;93012.81;;;11.81;75.95
71057;BME280;58380;48.312;9.246;2023-04-21T11:48:15;93009.34;;;11.80;78.71
71057;BME280;58380;48.312;9.246;2023-04-21T11:50:49;93015.66;;;11.90;75.89
71057;BME280;58380;48.312;9.246;2023-04-21T11:53:15;93016.56;;;12.04;72.13
71057;BME280;58380;48.312;9.246;2023-04-21T11:55:42;93016.81;;;12.02;74.39
71057;BME280;58380;48.312;9.246;2023-04-21T11:58:10;93001.78;;;11.98;72.99
71057;BME280;58380;48.312;9.246;2023-04-21T12:00:36;92981.72;;;11.97;71.29
71057;BME280;58380;48.312;9.246;2023-04-21T12:03:02;92996.56;;;12.17;72.17
71057;BME280;58380;48.312;9.246;2023-04-21T12:05:34;93017.72;;;12.41;70.81
71057;BME280;58380;48.312;9.246;2023-04-21T12:08:00;93001.09;;;12.35;69.25
71057;BME280;58380;48.312;9.246;2023-04-21T12:10:28;93006.22;;;12.50;67.50
71057;BME280;58380;48.312;9.246;2023-04-21T12:12:55;93013.28;;;12.55;66.33
71057;BME280;58380;48.312;9.246;2023-04-21T12:15:21;93004.22;;;12.61;68.89
71057;BME280;58380;48.312;9.246;2023-04-21T12:17:48;93007.59;;;12.67;72.90
71057;BME280;58380;48.312;9.246;2023-04-21T12:20:16;93007.38;;;12.63;68.91
71057;BME280;58380;48.312;9.246;2023-04-21T12:22:47;92981.69;;;12.64;69.85
71057;BME280;58380;48.312;9.246;2023-04-21T12:25:13;93005.22;;;12.84;70.44
71057;BME280;58380;48.312;9.246;2023-04-21T12:27:53;93004.94;;;12.67;68.63
71057;BME280;58380;48.312;9.246;2023-04-21T12:30:22;92989.84;;;12.48;70.26
71057;BME280;58380;48.312;9.246;2023-04-21T12:32:48;93005.84;;;12.57;70.24
71057;BME280;58380;48.312;9.246;2023-04-21T12:35:13;93005.59;;;12.59;70.61
71057;BME280;58380;48.312;9.246;2023-04-21T12:37:39;92962.44;;;12.58;71.51
71057;BME280;58380;48.312;9.246;2023-04-21T12:40:05;92992.47;;;13.05;68.42
71057;BME280;58380;48.312;9.246;2023-04-21T12:42:31;92991.69;;;13.05;67.44
71057;BME280;58380;48.312;9.246;2023-04-21T12:44:57;92973.66;;;13.07;65.71
71057;BME280;58380;48.312;9.246;2023-04-21T12:47:22;93005.25;;;13.03;70.07
71057;BME280;58380;48.312;9.246;2023-04-21T12:49:48;92979.44;;;12.90;70.90
71057;BME280;58380;48.312;9.246;2023-04-21T12:52:13;92978.94;;;13.07;70.38
71057;BME280;58380;48.312;9.246;2023-04-21T12:54:39;92996.41;;;13.27;68.00
71057;BME280;58380;48.312;9.246;2023-04-21T12:57:05;92922.34;;;12.84;69.53
71057;BME280;58380;48.312;9.246;2023-04-21T12:59:31;92997.53;;;13.40;67.03
71057;BME280;58380;48.312;9.246;2023-04-21T13:01:56;92990.28;;;13.45;65.65
71057;BME280;58380;48.312;9.246;2023-04-21T13:04:22;92962.59;;;13.19;64.04
71057;BME280;58380;48.312;9.246;2023-04-21T13:06:47;92959.31;;;13.08;65.93
71057;BME280;58380;48.312;9.246;2023-04-21T13:09:13;92935.72;;;12.92;65.55